createdAt,value
2018-06-17T00:01:09.543Z,71.42
2018-06-17T00:03:39.781Z,70.55
2018-06-17T00:06:10.088Z,70.18
2018-06-17T00:08:40.299Z,70.18
2018-06-17T00:11:10.574Z,69.89
2018-06-17T00:13:40.894Z,70.06
2018-06-17T00:16:11.176Z,69.71
2018-06-17T00:18:41.546Z,69.39
2018-06-17T00:21:11.868Z,69.43
2018-06-17T00:23:42.152Z,69.32
2018-06-17T00:26:12.339Z,69.67
2018-06-17T00:28:42.658Z,69.34
2018-06-17T00:31:12.930Z,69.49
2018-06-17T00:33:43.479Z,69.20
2018-06-17T00:36:13.782Z,69.61
2018-06-17T00:38:43.996Z,69.57
2018-06-17T00:41:14.353Z,69.81
2018-06-17T00:43:44.614Z,69.56
2018-06-17T00:46:14.912Z,69.49
2018-06-17T00:48:45.331Z,69.58
2018-06-17T00:51:15.569Z,69.13
2018-06-17T00:53:45.610Z,69.10
2018-06-17T00:56:15.872Z,68.31
2018-06-17T00:58:46.114Z,68.19
2018-06-17T01:01:16.426Z,68.72
2018-06-17T01:03:46.637Z,69.28
2018-06-17T01:06:16.842Z,69.14
2018-06-17T01:08:46.967Z,69.43
2018-06-17T01:11:17.246Z,69.81
2018-06-17T01:13:47.489Z,69.81
2018-06-17T01:16:17.773Z,69.47
2018-06-17T01:18:47.965Z,69.16
2018-06-17T01:21:18.393Z,69.07
2018-06-17T01:23:48.768Z,68.57
2018-06-17T01:26:19.028Z,68.50
2018-06-17T01:28:49.289Z,68.63
2018-06-17T01:31:19.522Z,68.42
2018-06-17T01:33:49.822Z,68.39
2018-06-17T01:36:19.819Z,68.73
2018-06-17T01:38:50.077Z,68.97
2018-06-17T01:41:20.252Z,68.86
2018-06-17T01:43:50.446Z,68.56
2018-06-17T01:46:20.706Z,68.40
2018-06-17T01:48:50.954Z,68.33
2018-06-17T01:51:21.167Z,68.26
2018-06-17T01:53:51.413Z,68.35
2018-06-17T01:56:21.607Z,68.08
2018-06-17T01:58:51.820Z,68.31
2018-06-17T02:01:22.107Z,68.45
2018-06-17T02:03:57.331Z,68.03
2018-06-17T02:06:32.646Z,68.18
2018-06-17T02:09:08.058Z,68.26
2018-06-17T02:11:40.457Z,67.83
2018-06-17T02:14:15.883Z,67.46
2018-06-17T02:16:46.158Z,68.29
2018-06-17T02:19:16.310Z,68.91
2018-06-17T02:21:46.620Z,69.21
2018-06-17T02:24:16.900Z,69.07
2018-06-17T02:26:47.232Z,69.08
2018-06-17T02:29:17.560Z,69.10
2018-06-17T02:31:47.828Z,69.20
2018-06-17T02:34:18.208Z,68.87
2018-06-17T02:36:48.647Z,68.56
2018-06-17T02:39:18.932Z,68.55
2018-06-17T02:41:49.300Z,68.48
2018-06-17T02:44:19.568Z,68.37
2018-06-17T02:46:55.363Z,68.53
2018-06-17T02:49:30.861Z,68.82
2018-06-17T02:52:06.297Z,68.52
2018-06-17T02:54:43.682Z,68.44
2018-06-17T02:57:15.516Z,68.45
2018-06-17T02:59:46.253Z,68.74
2018-06-17T03:02:16.942Z,68.13
2018-06-17T03:04:47.199Z,68.85
2018-06-17T03:07:17.237Z,68.40
2018-06-17T03:09:47.469Z,68.02
2018-06-17T03:12:17.750Z,68.00
2018-06-17T03:14:48.068Z,68.04
2018-06-17T03:17:18.390Z,67.67
2018-06-17T03:19:48.657Z,68.32
2018-06-17T03:22:18.965Z,69.04
2018-06-17T03:24:54.260Z,69.26
2018-06-17T03:27:29.713Z,69.40
2018-06-17T03:30:05.237Z,69.25
2018-06-17T03:32:40.633Z,68.90
2018-06-17T03:35:15.900Z,68.91
2018-06-17T03:37:46.201Z,68.80
2018-06-17T03:40:16.647Z,68.83
2018-06-17T03:42:47.044Z,68.69
2018-06-17T03:45:17.429Z,68.05
2018-06-17T03:47:47.730Z,68.06
2018-06-17T03:50:18.055Z,68.51
2018-06-17T03:52:48.372Z,68.89
2018-06-17T03:55:18.698Z,68.46
2018-06-17T03:57:48.952Z,68.65
2018-06-17T04:00:19.244Z,68.13
2018-06-17T04:02:49.632Z,67.93
2018-06-17T04:05:25.037Z,67.96
2018-06-17T04:07:55.381Z,68.03
2018-06-17T04:10:25.682Z,67.65
2018-06-17T04:12:56.493Z,67.95
2018-06-17T04:15:26.795Z,68.18
2018-06-17T04:17:57.113Z,67.92
2018-06-17T04:20:27.462Z,68.58
2018-06-17T04:22:57.727Z,68.67
2018-06-17T04:25:28.055Z,68.71
2018-06-17T04:27:58.345Z,68.75
2018-06-17T04:30:28.629Z,69.01
2018-06-17T04:32:58.896Z,69.03
2018-06-17T04:35:29.256Z,69.14
2018-06-17T04:37:59.547Z,68.89
2018-06-17T04:40:31.793Z,68.12
2018-06-17T04:43:02.207Z,68.38
2018-06-17T04:45:32.804Z,68.43
2018-06-17T04:48:03.100Z,68.51
2018-06-17T04:50:33.475Z,68.63
2018-06-17T04:53:03.776Z,68.97
2018-06-17T04:55:34.167Z,68.82
2018-06-17T04:58:04.456Z,68.97
2018-06-17T05:00:34.881Z,68.84
2018-06-17T05:03:05.228Z,68.45
2018-06-17T05:05:35.548Z,68.61
2018-06-17T05:08:05.908Z,68.20
2018-06-17T05:10:36.171Z,68.06
2018-06-17T05:13:06.700Z,67.55
2018-06-17T05:15:37.002Z,66.28
2018-06-17T05:18:07.373Z,64.48
2018-06-17T05:20:37.709Z,64.24
2018-06-17T05:23:08.039Z,63.74
2018-06-17T05:25:38.520Z,62.77
2018-06-17T05:28:08.824Z,61.19
2018-06-17T05:30:39.092Z,59.64
2018-06-17T05:33:09.161Z,59.09
2018-06-17T05:35:39.422Z,58.16
2018-06-17T05:38:10.463Z,57.18
2018-06-17T05:40:41.013Z,57.50
2018-06-17T05:43:11.279Z,56.96
2018-06-17T05:45:41.892Z,55.44
2018-06-17T05:48:12.184Z,55.06
2018-06-17T05:50:43.072Z,55.00
2018-06-17T05:53:13.291Z,54.40
2018-06-17T05:55:43.712Z,54.45
2018-06-17T05:58:14.234Z,53.34
2018-06-17T06:00:44.576Z,53.90
2018-06-17T06:03:14.868Z,55.19
2018-06-17T06:05:45.197Z,55.53
2018-06-17T06:08:15.442Z,55.88
2018-06-17T06:10:45.819Z,55.75
2018-06-17T06:13:16.116Z,56.32
2018-06-17T06:15:52.781Z,56.95
2018-06-17T06:18:23.098Z,57.08
2018-06-17T06:20:53.649Z,57.12
2018-06-17T06:23:23.960Z,57.39
2018-06-17T06:25:54.048Z,58.13
2018-06-17T06:28:24.504Z,58.05
2018-06-17T06:30:54.916Z,57.57
2018-06-17T06:33:25.652Z,57.80
2018-06-17T06:35:55.980Z,59.50
2018-06-17T06:38:26.244Z,59.83
2018-06-17T06:40:56.547Z,59.49
2018-06-17T06:43:26.837Z,59.42
2018-06-17T06:45:57.140Z,59.32
2018-06-17T06:48:27.300Z,58.64
2018-06-17T06:50:57.756Z,58.46
2018-06-17T06:53:28.328Z,58.06
2018-06-17T06:55:58.756Z,59.32
2018-06-17T06:58:29.056Z,58.87
2018-06-17T07:00:59.366Z,59.05
2018-06-17T07:03:40.343Z,58.56
2018-06-17T07:06:21.148Z,59.78
2018-06-17T07:09:01.876Z,59.27
2018-06-17T07:11:32.165Z,59.98
2018-06-17T07:14:02.548Z,59.75
2018-06-17T07:16:43.779Z,60.74
2018-06-17T07:19:13.889Z,61.45
2018-06-17T07:21:43.848Z,62.13
2018-06-17T07:24:13.731Z,62.10
2018-06-17T07:26:56.706Z,62.30
2018-06-17T07:29:38.795Z,61.69
2018-06-17T07:32:08.871Z,62.78
2018-06-17T07:34:38.769Z,62.92
2018-06-17T07:37:08.687Z,61.67
2018-06-17T07:41:47.532Z,61.80
2018-06-17T07:44:17.459Z,61.42
2018-06-17T07:46:47.392Z,60.69
2018-06-17T07:49:36.958Z,60.63
2018-06-17T07:52:18.830Z,61.12
2018-06-17T07:54:48.971Z,59.77
2018-06-17T07:57:23.145Z,58.84
2018-06-17T07:59:52.971Z,59.49
2018-06-17T08:02:22.889Z,59.52
2018-06-17T08:04:52.828Z,60.09
2018-06-17T08:07:22.776Z,60.40
2018-06-17T08:09:52.677Z,59.05
2018-06-17T08:12:22.554Z,59.92
2018-06-17T08:14:52.496Z,58.83
2018-06-17T08:17:22.418Z,58.74
2018-06-17T08:19:52.410Z,59.12
2018-06-17T08:22:22.264Z,57.62
2018-06-17T08:24:52.154Z,56.98
2018-06-17T08:27:21.787Z,56.84
2018-06-17T08:29:51.410Z,57.02
2018-06-17T08:32:21.162Z,56.09
2018-06-17T08:34:51.023Z,56.44
2018-06-17T08:37:20.699Z,57.69
2018-06-17T08:39:50.400Z,57.91
2018-06-17T08:42:20.163Z,58.22
2018-06-17T08:44:49.787Z,57.07
2018-06-17T08:47:19.583Z,56.85
2018-06-17T08:49:49.194Z,55.95
2018-06-17T08:52:18.952Z,56.28
2018-06-17T08:54:48.659Z,56.85
2018-06-17T08:57:18.393Z,56.72
2018-06-17T08:59:48.085Z,56.42
2018-06-17T09:02:17.783Z,55.55
2018-06-17T09:04:47.463Z,55.72
2018-06-17T09:07:17.151Z,54.82
2018-06-17T09:09:46.837Z,54.72
2018-06-17T09:12:16.623Z,55.28
2018-06-17T09:14:46.483Z,55.00
2018-06-17T09:17:16.755Z,54.90
2018-06-17T09:19:46.557Z,55.53
2018-06-17T09:22:16.220Z,56.38
2018-06-17T09:24:45.884Z,55.81
2018-06-17T09:27:15.616Z,55.51
2018-06-17T09:29:45.320Z,54.94
2018-06-17T09:32:15.003Z,55.01
2018-06-17T09:34:44.872Z,55.32
2018-06-17T09:37:14.580Z,54.94
2018-06-17T09:39:44.257Z,55.09
2018-06-17T09:42:13.993Z,55.49
2018-06-17T09:44:43.661Z,55.39
2018-06-17T09:47:13.381Z,54.80
2018-06-17T09:49:43.434Z,54.35
2018-06-17T09:52:13.115Z,54.83
2018-06-17T09:54:42.884Z,53.75
2018-06-17T09:57:12.555Z,54.18
2018-06-17T09:59:42.243Z,53.93
2018-06-17T10:02:11.894Z,53.16
2018-06-17T10:04:41.529Z,52.27
2018-06-17T10:07:11.866Z,52.38
2018-06-17T10:10:54.550Z,52.06
2018-06-17T10:13:26.311Z,52.48
2018-06-17T10:15:56.565Z,52.30
2018-06-17T10:18:27.244Z,52.18
2018-06-17T10:20:57.515Z,52.59
2018-06-17T10:23:28.219Z,51.95
2018-06-17T10:25:58.586Z,53.11
2018-06-17T10:28:29.799Z,51.74
2018-06-17T10:31:01.396Z,51.06
2018-06-17T10:33:31.680Z,51.08
2018-06-17T10:36:01.924Z,52.70
2018-06-17T10:38:32.392Z,53.64
2018-06-17T10:41:02.600Z,53.76
2018-06-17T10:43:33.583Z,54.65
2018-06-17T10:46:04.145Z,54.45
2018-06-17T10:48:34.508Z,55.75
2018-06-17T10:51:04.812Z,55.78
2018-06-17T10:53:35.176Z,55.45
2018-06-17T10:56:05.675Z,56.64
2018-06-17T10:58:36.090Z,56.08
2018-06-17T11:01:06.400Z,56.24
2018-06-17T11:03:36.710Z,56.53
2018-06-17T11:06:07.056Z,56.49
2018-06-17T11:08:37.295Z,55.45
2018-06-17T11:11:07.711Z,55.10
2018-06-17T11:13:37.957Z,55.80
2018-06-17T11:16:08.251Z,56.77
2018-06-17T11:18:38.528Z,56.37
2018-06-17T11:21:08.961Z,55.75
2018-06-17T11:23:39.188Z,55.15
2018-06-17T11:26:09.503Z,54.08
2018-06-17T11:28:39.728Z,50.56
2018-06-17T11:31:10.090Z,52.19
2018-06-17T11:33:40.293Z,51.93
2018-06-17T11:36:10.580Z,51.04
2018-06-17T11:38:40.839Z,52.12
2018-06-17T11:41:11.368Z,51.42
2018-06-17T11:43:41.764Z,52.82
2018-06-17T11:46:12.000Z,52.96
2018-06-17T11:48:42.621Z,53.10
2018-06-17T11:51:13.035Z,53.94
2018-06-17T11:53:43.305Z,53.04
2018-06-17T11:56:13.761Z,53.32
2018-06-17T11:58:44.024Z,54.85
2018-06-17T12:01:14.611Z,53.94
2018-06-17T12:03:45.040Z,54.24
2018-06-17T12:06:15.275Z,54.51
2018-06-17T12:08:45.597Z,55.31
2018-06-17T12:11:15.839Z,55.21
2018-06-17T12:13:46.136Z,54.94
2018-06-17T12:16:16.369Z,54.35
2018-06-17T12:18:46.824Z,54.21
2018-06-17T12:21:17.030Z,53.66
2018-06-17T12:23:47.238Z,52.76
2018-06-17T12:26:17.717Z,52.72
2018-06-17T12:28:48.078Z,52.95
2018-06-17T12:31:18.330Z,52.89
2018-06-17T12:33:48.738Z,52.20
2018-06-17T12:36:19.134Z,53.48
2018-06-17T12:38:49.477Z,52.64
2018-06-17T12:41:19.859Z,54.30
2018-06-17T12:43:50.224Z,55.83
2018-06-17T12:46:20.536Z,54.74
2018-06-17T12:48:50.748Z,56.23
2018-06-17T12:51:21.100Z,58.99
2018-06-17T12:53:51.698Z,56.37
2018-06-17T12:56:22.053Z,57.01
2018-06-17T12:58:52.487Z,51.89
2018-06-17T13:01:22.869Z,51.75
2018-06-17T13:03:53.235Z,49.92
2018-06-17T13:06:23.549Z,47.00
2018-06-17T13:08:53.784Z,46.65
2018-06-17T13:11:23.996Z,47.75
2018-06-17T13:13:54.317Z,48.88
2018-06-17T13:16:24.700Z,49.35
2018-06-17T13:18:55.001Z,47.95
2018-06-17T13:21:25.252Z,49.48
2018-06-17T13:23:55.658Z,50.75
2018-06-17T13:26:25.762Z,52.69
2018-06-17T13:28:56.025Z,52.34
2018-06-17T13:31:26.345Z,50.79
2018-06-17T13:33:56.740Z,52.92
2018-06-17T13:36:26.954Z,53.34
2018-06-17T13:38:57.270Z,53.14
2018-06-17T13:41:27.624Z,54.30
2018-06-17T13:43:57.944Z,52.92
2018-06-17T13:46:28.172Z,52.67
2018-06-17T13:48:58.432Z,54.25
2018-06-17T13:51:28.793Z,55.23
2018-06-17T13:53:59.214Z,53.22
2018-06-17T13:56:35.940Z,56.66
2018-06-17T13:59:06.534Z,56.16
2018-06-17T14:01:36.641Z,54.73
2018-06-17T14:04:06.960Z,55.75
2018-06-17T14:06:37.237Z,54.26
2018-06-17T14:09:10.007Z,53.55
2018-06-17T14:11:40.252Z,54.21
2018-06-17T14:14:10.620Z,54.31
2018-06-17T14:16:40.863Z,51.91
2018-06-17T14:19:11.208Z,55.22
2018-06-17T14:21:41.455Z,55.57
2018-06-17T14:24:11.847Z,53.16
2018-06-17T14:26:42.125Z,51.55
2018-06-17T14:29:12.419Z,51.39
2018-06-17T14:31:42.759Z,54.05
2018-06-17T14:34:15.687Z,49.03
2018-06-17T14:36:45.966Z,51.85
2018-06-17T14:39:16.468Z,52.60
2018-06-17T14:42:51.715Z,52.41
2018-06-17T14:45:26.959Z,51.11
2018-06-17T14:48:02.785Z,49.27
2018-06-17T14:50:38.397Z,50.15
2018-06-17T14:53:08.801Z,50.12
2018-06-17T14:55:39.367Z,50.29
2018-06-17T14:58:09.989Z,49.58
2018-06-17T15:00:41.334Z,51.31
2018-06-17T15:03:11.911Z,51.14
2018-06-17T15:05:42.645Z,52.51
2018-06-17T15:08:13.165Z,52.46
2018-06-17T15:10:43.637Z,51.98
2018-06-17T15:13:13.800Z,50.84
2018-06-17T15:15:45.146Z,50.15
2018-06-17T15:18:15.812Z,50.11
2018-06-17T15:20:46.904Z,49.65
2018-06-17T15:23:17.143Z,50.36
2018-06-17T15:25:47.447Z,50.64
2018-06-17T15:28:17.787Z,50.53
2018-06-17T15:30:48.093Z,49.97
2018-06-17T15:33:23.617Z,49.04
2018-06-17T15:35:59.180Z,49.58
2018-06-17T15:38:34.622Z,49.40
2018-06-17T15:41:10.141Z,48.92
2018-06-17T15:43:40.359Z,51.25
2018-06-17T15:46:10.550Z,52.81
2018-06-17T15:48:40.772Z,55.31
2018-06-17T15:51:11.132Z,56.08
2018-06-17T15:53:41.682Z,56.93
2018-06-17T15:56:11.946Z,58.81
2018-06-17T15:58:42.275Z,60.71
2018-06-17T16:01:13.192Z,61.04
2018-06-17T16:03:43.459Z,61.15
2018-06-17T16:06:13.959Z,60.57
2018-06-17T16:08:44.139Z,60.31
2018-06-17T16:11:14.377Z,60.28
2018-06-17T16:13:49.661Z,60.08
2018-06-17T16:16:24.963Z,59.75
2018-06-17T16:19:00.343Z,60.08
2018-06-17T16:21:30.571Z,59.91
2018-06-17T16:24:00.814Z,61.82
2018-06-17T16:26:31.243Z,61.87
2018-06-17T16:29:01.480Z,62.78
2018-06-17T16:31:31.743Z,60.54
2018-06-17T16:34:02.546Z,60.71
2018-06-17T16:36:32.982Z,60.73
2018-06-17T16:39:03.709Z,60.97
2018-06-17T16:41:34.188Z,60.85
2018-06-17T16:44:04.536Z,60.64
2018-06-17T16:46:35.093Z,61.86
2018-06-17T16:49:05.427Z,62.79
2018-06-17T16:51:41.928Z,63.33
2018-06-17T16:54:20.191Z,63.67
2018-06-17T16:56:55.808Z,63.58
2018-06-17T16:59:31.109Z,66.36
2018-06-17T17:02:01.357Z,64.40
2018-06-17T17:04:31.748Z,63.30
2018-06-17T17:07:05.274Z,63.93
2018-06-17T17:09:35.722Z,70.84
2018-06-17T17:12:09.259Z,72.33
2018-06-17T17:14:39.636Z,75.01
2018-06-17T17:17:10.005Z,68.26
2018-06-17T17:19:40.429Z,65.29
2018-06-17T17:22:10.861Z,65.91
2018-06-17T17:24:41.266Z,67.99
2018-06-17T17:27:11.795Z,68.69
2018-06-17T17:29:42.304Z,65.40
2018-06-17T17:32:18.338Z,65.68
2018-06-17T17:34:53.967Z,66.48
2018-06-17T17:37:29.545Z,68.03
2018-06-17T17:43:07.090Z,69.02
2018-06-17T17:45:43.783Z,69.47
2018-06-17T17:48:17.018Z,69.94
2018-06-17T17:50:47.401Z,70.32
2018-06-17T17:53:23.375Z,69.33
2018-06-17T17:55:54.056Z,69.98
2018-06-17T17:58:24.532Z,71.33
2018-06-17T18:00:55.316Z,70.05
2018-06-17T18:03:28.139Z,70.21
2018-06-17T18:06:00.341Z,69.83
2018-06-17T18:08:30.754Z,68.84
2018-06-17T18:11:04.167Z,68.29
2018-06-17T18:13:58.380Z,68.40
2018-06-17T18:16:31.647Z,69.72
2018-06-17T18:19:04.366Z,70.32
2018-06-17T18:21:34.732Z,71.45
2018-06-17T18:24:05.284Z,71.85
2018-06-17T18:27:22.780Z,72.40
2018-06-17T18:30:07.975Z,71.70
2018-06-17T18:32:44.894Z,71.49
2018-06-17T18:35:20.193Z,70.89
2018-06-17T18:37:51.240Z,71.30
2018-06-17T18:40:23.413Z,72.02
2018-06-17T18:42:53.860Z,71.21
2018-06-17T18:45:24.408Z,71.02
2018-06-17T18:47:54.948Z,70.35
2018-06-17T18:50:25.400Z,69.85
2018-06-17T18:52:56.136Z,69.12
2018-06-17T18:55:26.880Z,68.14
2018-06-17T18:57:57.380Z,68.54
2018-06-17T19:00:28.225Z,68.43
2018-06-17T19:02:59.206Z,69.01
2018-06-17T19:05:30.018Z,69.57
2018-06-17T19:08:00.593Z,67.72
2018-06-17T19:10:35.916Z,68.55
2018-06-17T19:13:11.555Z,68.05
2018-06-17T19:15:47.157Z,68.03
2018-06-17T19:18:17.608Z,68.14
2018-06-17T19:20:48.155Z,68.20
2018-06-17T19:23:18.785Z,67.45
2018-06-17T19:25:49.461Z,69.99
2018-06-17T19:28:20.264Z,69.27
2018-06-17T19:30:51.030Z,68.60
2018-06-17T19:33:21.637Z,68.07
2018-06-17T19:35:52.301Z,69.20
2018-06-17T19:38:22.904Z,69.56
2018-06-17T19:40:53.571Z,69.21
2018-06-17T19:43:24.081Z,70.84
2018-06-17T19:45:54.902Z,71.82
2018-06-17T19:48:25.527Z,70.10
2018-06-17T19:51:01.149Z,67.92
2018-06-17T19:53:36.947Z,68.66
2018-06-17T19:56:12.413Z,70.68
2018-06-17T19:58:48.093Z,72.01
2018-06-17T20:01:18.460Z,68.10
2018-06-17T20:03:49.449Z,66.84
2018-06-17T20:06:19.799Z,66.47
2018-06-17T20:08:50.320Z,67.17
2018-06-17T20:11:20.712Z,66.41
2018-06-17T20:13:50.994Z,67.91
2018-06-17T20:16:21.268Z,71.42
2018-06-17T20:18:51.621Z,69.21
2018-06-17T20:21:21.891Z,70.70
2018-06-17T20:23:52.174Z,68.97
2018-06-17T20:26:22.440Z,68.82
2018-06-17T20:28:52.747Z,68.38
2018-06-17T20:31:23.032Z,68.94
2018-06-17T20:33:58.225Z,68.01
2018-06-17T20:36:33.502Z,68.46
2018-06-17T20:39:09.124Z,66.95
2018-06-17T20:41:44.483Z,69.75
2018-06-17T20:44:15.595Z,69.88
2018-06-17T20:46:45.863Z,69.68
2018-06-17T20:49:16.115Z,69.94
2018-06-17T20:51:46.480Z,69.81
2018-06-17T20:54:16.977Z,69.08
2018-06-17T20:56:47.251Z,69.72
2018-06-17T20:59:17.645Z,68.99
2018-06-17T21:01:47.898Z,69.35
2018-06-17T21:04:18.247Z,69.24
2018-06-17T21:06:48.837Z,69.64
2018-06-17T21:09:19.124Z,69.53
2018-06-17T21:11:49.428Z,68.12
2018-06-17T21:14:19.748Z,67.85
2018-06-17T21:16:49.948Z,68.13
2018-06-17T21:19:25.161Z,70.02
2018-06-17T21:22:00.529Z,70.36
2018-06-17T21:24:35.754Z,69.28
2018-06-17T21:27:11.170Z,69.15
2018-06-17T21:29:41.419Z,67.77
2018-06-17T21:32:11.772Z,67.22
2018-06-17T21:34:42.004Z,70.94
2018-06-17T21:37:12.362Z,69.75
2018-06-17T21:39:43.373Z,69.05
2018-06-17T21:42:13.916Z,67.28
2018-06-17T21:44:44.313Z,66.42
2018-06-17T21:47:14.547Z,65.85
2018-06-17T21:49:44.980Z,66.71
2018-06-17T21:52:15.156Z,66.96
2018-06-17T21:54:45.560Z,67.78
2018-06-17T21:57:15.845Z,67.37
2018-06-17T21:59:46.035Z,67.68
2018-06-17T22:02:16.489Z,68.26
2018-06-17T22:04:46.827Z,70.99
2018-06-17T22:07:17.338Z,70.58
2018-06-17T22:09:52.719Z,69.98
2018-06-17T22:12:28.172Z,70.62
2018-06-17T22:15:03.624Z,69.65
2018-06-17T22:17:38.963Z,69.90
2018-06-17T22:20:09.250Z,69.92
2018-06-17T22:22:39.580Z,69.24
2018-06-17T22:25:09.845Z,68.91
2018-06-17T22:27:40.089Z,67.97
2018-06-17T22:30:10.484Z,69.61
2018-06-17T22:32:40.809Z,69.84
2018-06-17T22:35:11.158Z,69.08
2018-06-17T22:37:41.380Z,68.94
2018-06-17T22:40:11.785Z,69.84
2018-06-17T22:42:42.225Z,70.28
2018-06-17T22:45:12.467Z,69.85
2018-06-17T22:47:47.994Z,69.81
2018-06-17T22:50:18.254Z,72.08
2018-06-17T22:52:59.485Z,71.55
2018-06-17T22:55:30.873Z,71.42
2018-06-17T22:58:06.668Z,70.71
2018-06-17T23:00:43.808Z,70.91
2018-06-17T23:03:19.898Z,70.44
2018-06-17T23:05:56.786Z,70.70
2018-06-17T23:08:33.486Z,70.25
2018-06-17T23:11:06.576Z,70.39
2018-06-17T23:13:40.110Z,70.59
2018-06-17T23:16:16.469Z,70.93
2018-06-17T23:18:51.825Z,71.20
2018-06-17T23:21:23.464Z,71.10
2018-06-17T23:23:57.781Z,70.72
2018-06-17T23:26:30.261Z,70.58
2018-06-17T23:29:02.271Z,70.11
2018-06-17T23:31:35.232Z,69.90
2018-06-17T23:34:07.190Z,70.12
2018-06-17T23:36:40.080Z,69.41
2018-06-17T23:39:12.654Z,71.74
2018-06-17T23:41:46.088Z,68.70
2018-06-17T23:44:21.825Z,71.21
2018-06-17T23:46:58.936Z,70.94
2018-06-17T23:49:34.728Z,69.82
2018-06-17T23:52:12.696Z,70.39
2018-06-17T23:54:51.634Z,70.21
2018-06-17T23:57:22.918Z,70.54
2018-06-17T23:59:53.564Z,69.77
